createdAt,value
2018-08-30T00:01:18.740Z,98820.98
2018-08-30T00:03:49.264Z,98816.69
2018-08-30T00:06:19.867Z,98829.75
2018-08-30T00:08:50.362Z,98830.56
2018-08-30T00:11:21.226Z,98834.02
2018-08-30T00:13:51.736Z,98828.70
2018-08-30T00:16:22.572Z,98827.36
2018-08-30T00:18:53.160Z,98828.49
2018-08-30T00:21:23.570Z,98831.45
2018-08-30T00:23:54.044Z,98838.06
2018-08-30T00:26:24.880Z,98836.91
2018-08-30T00:28:55.187Z,98832.45
2018-08-30T00:31:25.732Z,98831.00
2018-08-30T00:33:56.222Z,98832.94
2018-08-30T00:36:26.749Z,98833.72
2018-08-30T00:38:57.188Z,98828.41
2018-08-30T00:41:27.784Z,98826.98
2018-08-30T00:43:58.212Z,98828.28
2018-08-30T00:46:28.688Z,98826.28
2018-08-30T00:49:01.131Z,98831.34
2018-08-30T00:51:31.756Z,98835.56
2018-08-30T00:54:02.191Z,98826.83
2018-08-30T00:56:32.666Z,98820.80
2018-08-30T00:59:02.968Z,98826.56
2018-08-30T01:01:33.422Z,98830.37
2018-08-30T01:04:03.885Z,98825.69
2018-08-30T01:06:35.637Z,98819.72
2018-08-30T01:09:07.745Z,98815.77
2018-08-30T01:11:38.324Z,98822.44
2018-08-30T01:14:08.646Z,98812.52
2018-08-30T01:16:39.047Z,98810.70
2018-08-30T01:19:09.549Z,98807.27
2018-08-30T01:21:39.894Z,98811.91
2018-08-30T01:24:10.370Z,98815.22
2018-08-30T01:26:40.767Z,98813.35
2018-08-30T01:29:11.360Z,98805.84
2018-08-30T01:31:41.953Z,98807.53
2018-08-30T01:34:13.465Z,98802.01
2018-08-30T01:36:44.792Z,98805.62
2018-08-30T01:39:15.184Z,98803.09
2018-08-30T01:41:45.559Z,98801.91
2018-08-30T01:44:16.233Z,98803.98
2018-08-30T01:46:46.665Z,98799.98
2018-08-30T01:49:17.195Z,98796.00
2018-08-30T01:51:47.529Z,98800.57
2018-08-30T01:54:17.999Z,98809.38
2018-08-30T01:56:48.382Z,98815.91
2018-08-30T01:59:19.613Z,98806.73
2018-08-30T02:01:50.034Z,98806.44
2018-08-30T02:04:20.634Z,98807.03
2018-08-30T02:06:50.968Z,98803.56
2018-08-30T02:09:21.364Z,98800.77
2018-08-30T02:11:51.821Z,98802.97
2018-08-30T02:14:22.096Z,98799.45
2018-08-30T02:16:52.702Z,98802.53
2018-08-30T02:19:23.379Z,98804.66
2018-08-30T02:21:54.053Z,98794.73
2018-08-30T02:24:24.580Z,98794.38
2018-08-30T02:26:55.367Z,98796.05
2018-08-30T02:29:25.842Z,98794.41
2018-08-30T02:31:56.349Z,98790.33
2018-08-30T02:34:26.771Z,98785.84
2018-08-30T02:36:57.347Z,98779.09
2018-08-30T02:39:27.793Z,98784.22
2018-08-30T02:41:58.113Z,98787.64
2018-08-30T02:44:28.636Z,98786.25
2018-08-30T02:46:59.288Z,98787.16
2018-08-30T02:49:29.806Z,98788.16
2018-08-30T02:52:00.899Z,98782.41
2018-08-30T02:54:31.647Z,98783.38
2018-08-30T02:57:02.268Z,98780.73
2018-08-30T02:59:32.806Z,98772.36
2018-08-30T03:02:03.227Z,98767.58
2018-08-30T03:04:33.722Z,98775.41
2018-08-30T03:07:04.482Z,98773.41
2018-08-30T03:09:34.861Z,98780.84
2018-08-30T03:12:05.343Z,98777.22
2018-08-30T03:14:36.030Z,98767.91
2018-08-30T03:17:06.528Z,98765.36
2018-08-30T03:19:36.972Z,98769.77
2018-08-30T03:22:07.540Z,98764.37
2018-08-30T03:24:38.067Z,98764.77
2018-08-30T03:27:08.075Z,98761.49
2018-08-30T03:29:38.436Z,98766.28
2018-08-30T03:32:09.451Z,98760.78
2018-08-30T03:34:40.006Z,98765.88
2018-08-30T03:37:10.533Z,98762.86
2018-08-30T03:39:40.827Z,98761.81
2018-08-30T03:42:11.298Z,98762.19
2018-08-30T03:44:41.715Z,98757.11
2018-08-30T03:47:12.093Z,98762.62
2018-08-30T03:49:42.554Z,98760.60
2018-08-30T03:52:12.960Z,98759.60
2018-08-30T03:54:43.376Z,98753.96
2018-08-30T03:57:13.611Z,98754.61
2018-08-30T03:59:43.850Z,98757.89
2018-08-30T04:02:14.255Z,98754.19
2018-08-30T04:04:44.702Z,98756.14
2018-08-30T04:07:15.131Z,98759.30
2018-08-30T04:09:45.449Z,98759.27
2018-08-30T04:12:15.725Z,98765.60
2018-08-30T04:14:46.121Z,98763.16
2018-08-30T04:17:16.505Z,98764.20
2018-08-30T04:19:46.981Z,98772.05
2018-08-30T04:22:17.393Z,98764.97
2018-08-30T04:24:47.832Z,98769.03
2018-08-30T04:27:18.277Z,98771.19
2018-08-30T04:29:48.687Z,98770.41
2018-08-30T04:32:20.240Z,98771.44
2018-08-30T04:34:51.601Z,98769.41
2018-08-30T04:37:22.070Z,98775.24
2018-08-30T04:39:52.539Z,98779.41
2018-08-30T04:42:22.960Z,98775.61
2018-08-30T04:44:53.188Z,98774.13
2018-08-30T04:47:24.564Z,98777.25
2018-08-30T04:49:55.173Z,98776.24
2018-08-30T04:52:25.549Z,98785.77
2018-08-30T04:54:55.948Z,98786.77
2018-08-30T04:57:26.516Z,98795.06
2018-08-30T04:59:57.108Z,98793.02
2018-08-30T05:02:27.584Z,98799.77
2018-08-30T05:04:58.153Z,98802.20
2018-08-30T05:07:28.732Z,98811.16
2018-08-30T05:09:59.310Z,98820.19
2018-08-30T05:12:29.774Z,98822.13
2018-08-30T05:15:00.225Z,98822.13
2018-08-30T05:17:31.360Z,98821.89
2018-08-30T05:20:01.885Z,98825.35
2018-08-30T05:22:32.698Z,98826.52
2018-08-30T05:25:03.768Z,98823.07
2018-08-30T05:27:35.459Z,98818.85
2018-08-30T05:30:06.349Z,98812.32
2018-08-30T05:32:37.335Z,98814.82
2018-08-30T05:35:07.852Z,98815.81
2018-08-30T05:37:38.423Z,98814.59
2018-08-30T05:40:09.618Z,98811.91
2018-08-30T05:42:39.961Z,98799.58
2018-08-30T05:45:10.750Z,98802.85
2018-08-30T05:47:41.486Z,98807.91
2018-08-30T05:50:11.840Z,98806.27
2018-08-30T05:52:42.832Z,98814.79
2018-08-30T05:55:13.506Z,98821.65
2018-08-30T05:57:44.254Z,98821.22
2018-08-30T06:00:14.815Z,98821.14
2018-08-30T06:02:45.728Z,98821.21
2018-08-30T06:05:16.542Z,98818.25
2018-08-30T06:07:47.164Z,98816.73
2018-08-30T06:10:17.712Z,98821.50
2018-08-30T06:12:48.269Z,98815.98
2018-08-30T06:15:19.149Z,98819.53
2018-08-30T06:17:49.588Z,98817.42
2018-08-30T06:20:20.143Z,98816.12
2018-08-30T06:22:50.627Z,98824.53
2018-08-30T06:25:21.321Z,98831.89
2018-08-30T06:27:52.585Z,98827.90
2018-08-30T06:30:23.701Z,98833.17
2018-08-30T06:32:54.826Z,98832.27
2018-08-30T06:35:25.858Z,98824.09
2018-08-30T06:37:57.400Z,98828.47
2018-08-30T06:40:28.838Z,98830.46
2018-08-30T06:42:59.411Z,98827.28
2018-08-30T06:45:30.328Z,98822.04
2018-08-30T06:48:00.926Z,98829.78
2018-08-30T06:50:31.379Z,98832.61
2018-08-30T06:53:01.964Z,98834.98
2018-08-30T06:55:32.412Z,98835.05
2018-08-30T06:58:03.378Z,98841.25
2018-08-30T07:00:33.967Z,98843.69
2018-08-30T07:03:04.634Z,98845.08
2018-08-30T07:05:35.204Z,98840.78
2018-08-30T07:08:06.131Z,98846.72
2018-08-30T07:10:36.728Z,98841.55
2018-08-30T07:13:07.603Z,98836.77
2018-08-30T07:15:38.239Z,98836.73
2018-08-30T07:18:08.983Z,98834.66
2018-08-30T07:20:39.484Z,98837.48
2018-08-30T07:23:10.043Z,98844.70
2018-08-30T07:25:41.023Z,98835.58
2018-08-30T07:28:11.577Z,98827.48
2018-08-30T07:30:42.146Z,98831.81
2018-08-30T07:33:12.651Z,98834.48
2018-08-30T07:35:43.226Z,98833.60
2018-08-30T07:38:13.748Z,98832.23
2018-08-30T07:40:44.216Z,98829.25
2018-08-30T07:43:14.763Z,98834.83
2018-08-30T07:45:45.813Z,98833.48
2018-08-30T07:48:17.171Z,98827.29
2018-08-30T07:50:48.648Z,98828.23
2018-08-30T07:53:19.265Z,98838.85
2018-08-30T07:55:51.475Z,98837.23
2018-08-30T07:58:22.063Z,98837.98
2018-08-30T08:00:52.681Z,98835.71
2018-08-30T08:03:23.455Z,98836.93
2018-08-30T08:05:54.264Z,98834.55
2018-08-30T08:08:24.888Z,98832.36
2018-08-30T08:10:55.605Z,98833.27
2018-08-30T08:13:26.220Z,98840.66
2018-08-30T08:15:58.445Z,98839.14
2018-08-30T08:18:29.608Z,98846.40
2018-08-30T08:21:00.335Z,98844.38
2018-08-30T08:23:31.369Z,98840.73
2018-08-30T08:26:02.028Z,98841.20
2018-08-30T08:28:32.643Z,98843.95
2018-08-30T08:31:03.385Z,98836.94
2018-08-30T08:33:34.150Z,98840.94
2018-08-30T08:36:05.126Z,98841.00
2018-08-30T08:38:36.191Z,98844.41
2018-08-30T08:41:07.088Z,98846.66
2018-08-30T08:43:37.750Z,98854.10
2018-08-30T08:46:08.547Z,98843.47
2018-08-30T08:48:39.249Z,98846.25
2018-08-30T08:51:10.283Z,98847.80
2018-08-30T08:53:40.916Z,98846.11
2018-08-30T08:56:11.922Z,98834.54
2018-08-30T08:58:43.916Z,98840.34
2018-08-30T09:01:14.517Z,98837.83
2018-08-30T09:03:46.163Z,98829.11
2018-08-30T09:06:17.022Z,98828.30
2018-08-30T09:08:47.721Z,98835.59
2018-08-30T09:11:18.472Z,98836.17
2018-08-30T09:13:49.534Z,98828.11
2018-08-30T09:16:21.679Z,98827.92
2018-08-30T09:18:52.360Z,98828.88
2018-08-30T09:21:23.278Z,98826.22
2018-08-30T09:23:54.384Z,98825.38
2018-08-30T09:26:24.959Z,98826.73
2018-08-30T09:28:55.627Z,98829.66
2018-08-30T09:31:26.259Z,98826.53
2018-08-30T09:33:57.087Z,98829.39
2018-08-30T09:36:28.089Z,98834.95
2018-08-30T09:38:58.825Z,98841.36
2018-08-30T09:41:29.645Z,98841.23
2018-08-30T09:44:00.394Z,98833.01
2018-08-30T09:46:31.012Z,98828.97
2018-08-30T09:49:01.658Z,98823.70
2018-08-30T09:51:33.806Z,98825.95
2018-08-30T09:54:04.608Z,98822.08
2018-08-30T09:56:35.363Z,98828.64
2018-08-30T09:59:06.243Z,98817.94
2018-08-30T10:01:42.039Z,98823.80
2018-08-30T10:04:12.594Z,98817.63
2018-08-30T10:06:43.324Z,98814.44
2018-08-30T10:09:13.997Z,98814.16
2018-08-30T10:11:45.020Z,98815.80
2018-08-30T10:14:15.671Z,98812.36
2018-08-30T10:16:46.356Z,98815.48
2018-08-30T10:19:16.989Z,98813.59
2018-08-30T10:21:47.800Z,98807.30
2018-08-30T10:24:18.316Z,98809.92
2018-08-30T10:26:49.072Z,98799.77
2018-08-30T10:29:19.700Z,98803.39
2018-08-30T10:31:50.519Z,98806.42
2018-08-30T10:34:21.708Z,98801.35
2018-08-30T10:36:53.798Z,98810.47
2018-08-30T10:39:24.548Z,98813.47
2018-08-30T10:41:55.308Z,98802.45
2018-08-30T10:44:25.898Z,98804.68
2018-08-30T10:46:56.968Z,98808.17
2018-08-30T10:49:27.853Z,98800.27
2018-08-30T10:51:58.856Z,98805.09
2018-08-30T10:54:30.346Z,98798.94
2018-08-30T10:57:01.566Z,98801.36
2018-08-30T10:59:32.179Z,98805.22
2018-08-30T11:02:02.842Z,98804.92
2018-08-30T11:04:33.590Z,98798.84
2018-08-30T11:07:04.323Z,98795.46
2018-08-30T11:09:36.374Z,98794.70
2018-08-30T11:12:07.086Z,98794.78
2018-08-30T11:14:38.922Z,98792.06
2018-08-30T11:17:09.537Z,98794.16
2018-08-30T11:19:40.209Z,98794.91
2018-08-30T11:22:11.191Z,98797.88
2018-08-30T11:24:42.342Z,98791.00
2018-08-30T11:27:13.090Z,98784.85
2018-08-30T11:29:43.651Z,98773.84
2018-08-30T11:32:15.352Z,98777.59
2018-08-30T11:34:46.114Z,98774.81
2018-08-30T11:37:17.154Z,98775.23
2018-08-30T11:39:48.386Z,98783.80
2018-08-30T11:42:19.546Z,98778.22
2018-08-30T11:44:50.220Z,98767.98
2018-08-30T11:47:21.413Z,98765.16
2018-08-30T11:49:54.522Z,98773.44
2018-08-30T11:52:25.969Z,98764.63
2018-08-30T11:54:56.539Z,98769.58
2018-08-30T11:57:30.254Z,98761.22
2018-08-30T12:00:01.233Z,98753.78
2018-08-30T12:02:32.026Z,98746.03
2018-08-30T12:05:06.990Z,98746.03
2018-08-30T12:07:37.805Z,98760.44
2018-08-30T12:10:08.628Z,98753.09
2018-08-30T12:12:39.211Z,98747.32
2018-08-30T12:15:09.758Z,98736.97
2018-08-30T12:17:40.326Z,98752.55
2018-08-30T12:20:11.007Z,98734.89
2018-08-30T12:22:41.699Z,98737.66
2018-08-30T12:25:12.630Z,98737.52
2018-08-30T12:27:43.262Z,98737.67
2018-08-30T12:30:14.728Z,98731.08
2018-08-30T12:32:45.634Z,98730.78
2018-08-30T12:35:16.558Z,98721.72
2018-08-30T12:37:47.135Z,98734.38
2018-08-30T12:40:18.048Z,98740.12
2018-08-30T12:42:49.066Z,98728.78
2018-08-30T12:45:19.559Z,98728.63
2018-08-30T12:47:50.056Z,98725.02
2018-08-30T12:50:21.183Z,98725.55
2018-08-30T12:52:52.128Z,98723.98
2018-08-30T12:55:23.224Z,98722.17
2018-08-30T12:57:54.025Z,98725.05
2018-08-30T13:00:25.032Z,98720.58
2018-08-30T13:02:55.449Z,98725.64
2018-08-30T13:05:27.471Z,98729.19
2018-08-30T13:07:58.082Z,98727.48
2018-08-30T13:10:28.769Z,98718.93
2018-08-30T13:12:59.886Z,98716.44
2018-08-30T13:15:30.724Z,98718.47
2018-08-30T13:18:01.336Z,98717.28
2018-08-30T13:20:32.133Z,98718.34
2018-08-30T13:23:04.078Z,98715.14
2018-08-30T13:25:34.953Z,98724.16
2018-08-30T13:28:06.279Z,98715.05
2018-08-30T13:30:37.173Z,98715.47
2018-08-30T13:33:08.455Z,98712.91
2018-08-30T13:35:38.995Z,98718.27
2018-08-30T13:38:09.722Z,98706.59
2018-08-30T13:40:40.586Z,98710.03
2018-08-30T13:43:11.116Z,98711.90
2018-08-30T13:45:41.938Z,98713.56
2018-08-30T13:48:12.625Z,98723.30
2018-08-30T13:50:43.157Z,98713.83
2018-08-30T13:53:14.879Z,98713.19
2018-08-30T13:55:45.382Z,98718.41
2018-08-30T13:58:16.297Z,98722.16
2018-08-30T14:00:47.900Z,98707.56
2018-08-30T14:03:19.158Z,98712.78
2018-08-30T14:05:49.921Z,98710.86
2018-08-30T14:08:20.526Z,98707.90
2018-08-30T14:10:51.525Z,98717.75
2018-08-30T14:13:22.351Z,98722.98
2018-08-30T14:15:52.706Z,98709.40
2018-08-30T14:18:23.679Z,98700.34
2018-08-30T14:20:55.045Z,98697.17
2018-08-30T14:23:25.850Z,98705.58
2018-08-30T14:25:56.986Z,98707.89
2018-08-30T14:28:27.858Z,98711.60
2018-08-30T14:30:58.935Z,98714.41
2018-08-30T14:33:31.274Z,98718.55
2018-08-30T14:36:04.045Z,98709.36
2018-08-30T14:38:35.996Z,98706.53
2018-08-30T14:41:11.696Z,98707.17
2018-08-30T14:43:43.863Z,98708.25
2018-08-30T14:46:17.558Z,98697.34
2018-08-30T14:48:49.733Z,98703.02
2018-08-30T14:51:21.273Z,98709.97
2018-08-30T14:53:54.188Z,98710.26
2018-08-30T14:56:24.817Z,98705.08
2018-08-30T14:58:55.667Z,98696.34
2018-08-30T15:01:26.654Z,98699.55
2018-08-30T15:03:57.592Z,98705.48
2018-08-30T15:06:32.341Z,98702.03
2018-08-30T15:09:03.890Z,98703.19
2018-08-30T15:11:36.441Z,98712.87
2018-08-30T15:14:08.495Z,98706.30
2018-08-30T15:16:42.552Z,98707.38
2018-08-30T15:19:14.158Z,98707.19
2018-08-30T15:21:46.514Z,98708.15
2018-08-30T15:24:17.773Z,98709.95
2018-08-30T15:26:48.554Z,98707.68
2018-08-30T15:29:19.895Z,98710.72
2018-08-30T15:31:51.727Z,98716.90
2018-08-30T15:34:24.606Z,98706.64
2018-08-30T15:36:55.590Z,98715.37
2018-08-30T15:39:27.576Z,98712.59
2018-08-30T15:41:59.969Z,98714.19
2018-08-30T15:44:30.801Z,98716.94
2018-08-30T15:47:01.806Z,98722.91
2018-08-30T15:49:32.346Z,98732.55
2018-08-30T15:52:03.600Z,98733.33
2018-08-30T15:54:34.475Z,98730.84
2018-08-30T15:57:05.662Z,98730.67
2018-08-30T15:59:36.745Z,98732.36
2018-08-30T16:02:08.190Z,98737.30
2018-08-30T16:04:39.010Z,98737.23
2018-08-30T16:07:09.780Z,98737.89
2018-08-30T16:09:41.108Z,98731.58
2018-08-30T16:12:12.226Z,98733.95
2018-08-30T16:14:43.753Z,98734.45
2018-08-30T16:17:16.167Z,98734.71
2018-08-30T16:19:47.159Z,98737.20
2018-08-30T16:22:18.602Z,98739.14
2018-08-30T16:24:51.779Z,98743.86
2018-08-30T16:27:23.343Z,98738.86
2018-08-30T16:29:56.277Z,98741.31
2018-08-30T16:32:28.542Z,98740.12
2018-08-30T16:34:59.777Z,98740.88
2018-08-30T16:37:30.657Z,98747.66
2018-08-30T16:40:02.305Z,98740.14
2018-08-30T16:42:33.304Z,98743.72
2018-08-30T16:45:05.702Z,98730.88
2018-08-30T16:47:37.361Z,98726.00
2018-08-30T16:50:08.330Z,98719.74
2018-08-30T16:52:39.547Z,98717.57
2018-08-30T16:55:10.445Z,98729.29
2018-08-30T16:57:42.847Z,98729.82
2018-08-30T17:00:14.397Z,98727.69
2018-08-30T17:02:45.999Z,98722.68
2018-08-30T17:05:17.168Z,98723.39
2018-08-30T17:07:48.568Z,98726.92
2018-08-30T17:10:21.262Z,98724.75
2018-08-30T17:12:52.886Z,98725.52
2018-08-30T17:15:25.308Z,98725.90
2018-08-30T17:17:56.813Z,98727.72
2018-08-30T17:20:43.107Z,98725.19
2018-08-30T17:23:14.206Z,98726.15
2018-08-30T17:25:46.053Z,98727.42
2018-08-30T17:28:17.656Z,98729.76
2018-08-30T17:30:50.041Z,98738.85
2018-08-30T17:33:21.820Z,98745.86
2018-08-30T17:35:54.325Z,98746.19
2018-08-30T17:38:25.946Z,98752.07
2018-08-30T17:40:58.585Z,98750.84
2018-08-30T17:43:30.150Z,98754.37
2018-08-30T17:46:01.828Z,98752.70
2018-08-30T17:48:34.266Z,98754.06
2018-08-30T17:51:06.786Z,98755.80
2018-08-30T17:53:38.516Z,98763.84
2018-08-30T17:56:10.789Z,98769.31
2018-08-30T17:58:42.856Z,98769.09
2018-08-30T18:01:14.840Z,98770.76
2018-08-30T18:03:46.467Z,98772.00
2018-08-30T18:06:18.005Z,98779.12
2018-08-30T18:08:49.588Z,98775.80
2018-08-30T18:11:21.139Z,98777.62
2018-08-30T18:13:54.044Z,98787.22
2018-08-30T18:16:25.668Z,98791.73
2018-08-30T18:18:57.408Z,98798.52
2018-08-30T18:21:29.760Z,98798.48
2018-08-30T18:24:01.489Z,98802.98
2018-08-30T18:26:33.607Z,98807.17
2018-08-30T18:29:05.132Z,98810.17
2018-08-30T18:31:36.884Z,98810.71
2018-08-30T18:34:08.690Z,98810.89
2018-08-30T18:36:40.510Z,98821.38
2018-08-30T18:39:12.907Z,98828.77
2018-08-30T18:41:44.972Z,98832.29
2018-08-30T18:44:17.313Z,98833.00
2018-08-30T18:46:49.138Z,98835.67
2018-08-30T18:49:22.222Z,98833.42
2018-08-30T18:51:53.916Z,98835.00
2018-08-30T18:54:25.835Z,98834.01
2018-08-30T18:56:57.501Z,98839.27
2018-08-30T18:59:29.357Z,98842.75
2018-08-30T19:02:01.337Z,98849.84
2018-08-30T19:04:33.614Z,98849.22
2018-08-30T19:07:05.704Z,98853.22
2018-08-30T19:09:37.677Z,98847.03
2018-08-30T19:12:11.624Z,98848.99
2018-08-30T19:14:43.888Z,98857.74
2018-08-30T19:17:20.895Z,98855.98
2018-08-30T19:19:52.797Z,98854.84
2018-08-30T19:22:28.009Z,98860.13
2018-08-30T19:25:04.653Z,98862.66
2018-08-30T19:27:37.946Z,98872.33
2018-08-30T19:30:14.699Z,98872.78
2018-08-30T19:32:49.022Z,98875.97
2018-08-30T19:35:25.283Z,98877.59
2018-08-30T19:37:59.657Z,98875.87
2018-08-30T19:40:36.435Z,98871.53
2018-08-30T19:43:09.664Z,98878.31
2018-08-30T19:45:42.543Z,98882.56
2018-08-30T19:48:15.034Z,98877.83
2018-08-30T19:50:47.766Z,98879.58
2018-08-30T19:53:20.970Z,98876.27
2018-08-30T19:55:53.118Z,98880.13
2018-08-30T19:58:25.188Z,98882.68
2018-08-30T20:00:59.868Z,98880.02
2018-08-30T20:03:31.914Z,98889.44
2018-08-30T20:06:04.865Z,98882.00
2018-08-30T20:08:37.182Z,98885.77
2018-08-30T20:11:09.383Z,98882.25
2018-08-30T20:13:43.098Z,98888.10
2018-08-30T20:16:15.763Z,98888.10
2018-08-30T20:18:48.480Z,98889.29
2018-08-30T20:21:20.893Z,98888.75
2018-08-30T20:23:53.682Z,98892.42
2018-08-30T20:26:25.662Z,98884.77
2018-08-30T20:28:57.330Z,98884.33
2018-08-30T20:31:29.375Z,98894.79
2018-08-30T20:34:01.797Z,98884.57
2018-08-30T20:36:33.418Z,98885.71
2018-08-30T20:39:06.123Z,98888.97
2018-08-30T20:41:38.588Z,98889.86
2018-08-30T20:44:11.186Z,98885.56
2018-08-30T20:46:43.069Z,98884.42
2018-08-30T20:49:15.868Z,98888.92
2018-08-30T20:51:47.908Z,98889.16
2018-08-30T20:54:19.765Z,98888.45
2018-08-30T20:56:51.543Z,98891.55
2018-08-30T20:59:24.641Z,98889.04
2018-08-30T21:01:56.285Z,98895.16
2018-08-30T21:04:29.496Z,98896.37
2018-08-30T21:07:01.078Z,98890.48
2018-08-30T21:09:35.172Z,98885.72
2018-08-30T21:12:06.368Z,98891.34
2018-08-30T21:14:39.701Z,98895.19
2018-08-30T21:17:10.980Z,98895.47
2018-08-30T21:19:42.754Z,98895.18
2018-08-30T21:22:13.525Z,98904.05
2018-08-30T21:24:44.208Z,98906.84
2018-08-30T21:27:15.120Z,98901.56
2018-08-30T21:29:45.834Z,98905.53
2018-08-30T21:32:16.653Z,98909.17
2018-08-30T21:34:47.156Z,98906.81
2018-08-30T21:37:17.692Z,98911.27
2018-08-30T21:39:48.375Z,98911.45
2018-08-30T21:42:19.042Z,98912.81
2018-08-30T21:44:49.699Z,98904.36
2018-08-30T21:47:20.476Z,98909.86
2018-08-30T21:49:52.855Z,98908.09
2018-08-30T21:52:24.574Z,98915.74
2018-08-30T21:54:55.635Z,98911.48
2018-08-30T21:57:27.654Z,98913.00
2018-08-30T21:59:58.391Z,98915.81
2018-08-30T22:02:29.207Z,98920.47
2018-08-30T22:05:02.618Z,98916.29
2018-08-30T22:07:38.124Z,98916.67
2018-08-30T22:10:11.377Z,98916.03
2018-08-30T22:12:42.960Z,98916.70
2018-08-30T22:15:13.987Z,98917.05
2018-08-30T22:17:49.669Z,98910.41
2018-08-30T22:20:20.627Z,98910.59
2018-08-30T22:22:52.471Z,98908.58
2018-08-30T22:25:25.517Z,98907.39
2018-08-30T22:28:02.647Z,98911.25
2018-08-30T22:30:33.292Z,98907.41
2018-08-30T22:33:03.787Z,98911.41
2018-08-30T22:35:40.707Z,98902.30
2018-08-30T22:38:11.776Z,98905.45
2018-08-30T22:40:43.620Z,98904.49
2018-08-30T22:43:15.485Z,98914.94
2018-08-30T22:45:47.324Z,98908.79
2018-08-30T22:48:20.794Z,98911.80
2018-08-30T22:50:51.453Z,98907.81
2018-08-30T22:53:24.710Z,98909.13
2018-08-30T22:55:55.370Z,98903.83
2018-08-30T22:58:26.020Z,98904.48
2018-08-30T23:00:56.535Z,98903.83
2018-08-30T23:03:27.017Z,98906.17
2018-08-30T23:05:57.654Z,98903.84
2018-08-30T23:08:28.527Z,98898.53
2018-08-30T23:10:59.203Z,98902.17
2018-08-30T23:13:29.896Z,98896.87
2018-08-30T23:16:00.562Z,98900.69
2018-08-30T23:18:32.545Z,98900.20
2018-08-30T23:21:03.143Z,98901.34
2018-08-30T23:23:33.837Z,98901.17
2018-08-30T23:26:04.315Z,98904.16
2018-08-30T23:28:35.093Z,98898.98
2018-08-30T23:31:05.786Z,98896.52
2018-08-30T23:33:36.462Z,98895.20
2018-08-30T23:36:07.109Z,98893.56
2018-08-30T23:38:38.251Z,98898.52
2018-08-30T23:41:10.215Z,98890.56
2018-08-30T23:43:42.051Z,98890.25
2018-08-30T23:46:12.825Z,98889.58
2018-08-30T23:48:43.118Z,98883.74
2018-08-30T23:51:13.778Z,98882.55
2018-08-30T23:53:44.282Z,98883.08
2018-08-30T23:56:14.814Z,98877.28
2018-08-30T23:59:01.788Z,98877.45
